createdAt,value
2023-03-11T00:01:15.663Z,1.98
2023-03-11T00:03:42.052Z,2.08
2023-03-11T00:06:08.455Z,1.80
2023-03-11T00:08:34.872Z,1.55
2023-03-11T00:11:02.347Z,1.70
2023-03-11T00:13:29.509Z,1.60
2023-03-11T00:15:56.876Z,1.60
2023-03-11T00:18:28.088Z,1.80
2023-03-11T00:20:56.394Z,1.45
2023-03-11T00:23:24.693Z,1.40
2023-03-11T00:25:51.345Z,1.40
2023-03-11T00:28:18.166Z,1.48
2023-03-11T00:30:46.290Z,1.67
2023-03-11T00:33:14.958Z,1.50
2023-03-11T00:35:42.485Z,1.50
2023-03-11T00:38:12.986Z,1.45
2023-03-11T00:40:39.913Z,1.88
2023-03-11T00:43:06.297Z,1.58
2023-03-11T00:45:33.715Z,1.85
2023-03-11T00:48:00.301Z,1.60
2023-03-11T00:50:30.854Z,1.77
2023-03-11T00:52:58.194Z,1.42
2023-03-11T00:55:28.030Z,1.65
2023-03-11T00:57:57.070Z,2.00
2023-03-11T01:00:24.762Z,1.83
2023-03-11T01:02:53.440Z,1.90
2023-03-11T01:05:22.508Z,1.77
2023-03-11T01:07:49.675Z,2.10
2023-03-11T01:10:16.935Z,2.00
2023-03-11T01:12:43.686Z,1.88
2023-03-11T01:15:17.719Z,2.03
2023-03-11T01:17:46.451Z,1.70
2023-03-11T01:20:13.683Z,1.98
2023-03-11T01:22:40.086Z,2.00
2023-03-11T01:25:07.064Z,1.83
2023-03-11T01:27:33.503Z,1.77
2023-03-11T01:29:59.872Z,1.65
2023-03-11T01:32:26.324Z,1.70
2023-03-11T01:34:52.737Z,1.52
2023-03-11T01:37:20.162Z,1.90
2023-03-11T01:39:46.617Z,2.17
2023-03-11T01:42:13.125Z,1.67
2023-03-11T01:44:39.500Z,2.05
2023-03-11T01:47:05.803Z,1.70
2023-03-11T01:49:32.258Z,1.92
2023-03-11T01:52:03.870Z,1.73
2023-03-11T01:54:35.271Z,1.98
2023-03-11T01:57:08.962Z,2.08
2023-03-11T01:59:44.591Z,1.60
2023-03-11T02:02:26.616Z,2.13
2023-03-11T02:04:54.653Z,1.98
2023-03-11T02:07:21.401Z,1.90
2023-03-11T02:09:59.156Z,2.22
2023-03-11T02:12:31.057Z,2.17
2023-03-11T02:14:57.530Z,2.10
2023-03-11T02:17:24.104Z,2.30
2023-03-11T02:19:56.415Z,2.10
2023-03-11T02:22:24.075Z,2.55
2023-03-11T02:25:00.526Z,2.20
2023-03-11T02:27:28.141Z,2.22
2023-03-11T02:29:56.821Z,2.25
2023-03-11T02:32:24.337Z,2.17
2023-03-11T02:34:50.773Z,1.80
2023-03-11T02:37:17.851Z,2.00
2023-03-11T02:39:47.402Z,2.28
2023-03-11T02:42:19.126Z,2.90
2023-03-11T02:44:49.266Z,2.35
2023-03-11T02:47:16.928Z,2.28
2023-03-11T02:49:43.722Z,2.17
2023-03-11T02:52:10.117Z,2.25
2023-03-11T02:54:36.483Z,1.88
2023-03-11T02:57:17.089Z,2.22
2023-03-11T02:59:43.491Z,1.88
2023-03-11T03:02:10.028Z,1.92
2023-03-11T03:04:36.511Z,2.75
2023-03-11T03:07:03.218Z,2.40
2023-03-11T03:09:29.609Z,2.30
2023-03-11T03:11:56.043Z,2.03
2023-03-11T03:14:45.471Z,2.30
2023-03-11T03:17:12.034Z,2.58
2023-03-11T03:19:38.450Z,2.13
2023-03-11T03:22:04.925Z,2.33
2023-03-11T03:24:31.335Z,2.40
2023-03-11T03:27:10.986Z,2.35
2023-03-11T03:29:37.384Z,2.42
2023-03-11T03:32:04.008Z,2.38
2023-03-11T03:34:30.409Z,2.40
2023-03-11T03:36:56.842Z,2.30
2023-03-11T03:39:23.230Z,2.50
2023-03-11T03:41:49.635Z,2.00
2023-03-11T03:44:18.299Z,3.10
2023-03-11T03:46:44.714Z,3.50
2023-03-11T03:49:11.395Z,2.53
2023-03-11T03:51:37.813Z,2.47
2023-03-11T03:54:04.367Z,4.15
2023-03-11T03:56:30.781Z,2.90
2023-03-11T03:59:07.395Z,3.25
2023-03-11T04:01:33.855Z,3.60
2023-03-11T04:04:00.239Z,4.15
2023-03-11T04:06:27.614Z,4.28
2023-03-11T04:09:00.242Z,3.75
2023-03-11T04:11:35.066Z,3.85
2023-03-11T04:14:02.539Z,2.90
2023-03-11T04:16:29.176Z,3.72
2023-03-11T04:18:55.599Z,4.07
2023-03-11T04:21:22.046Z,3.85
2023-03-11T04:23:48.475Z,3.47
2023-03-11T04:26:15.442Z,3.25
2023-03-11T04:28:41.870Z,3.28
2023-03-11T04:31:08.305Z,3.50
2023-03-11T04:33:34.770Z,3.47
2023-03-11T04:36:05.870Z,2.75
2023-03-11T04:38:32.352Z,2.63
2023-03-11T04:41:02.987Z,2.70
2023-03-11T04:43:29.403Z,3.00
2023-03-11T04:45:55.979Z,2.78
2023-03-11T04:48:22.810Z,2.90
2023-03-11T04:50:49.196Z,2.67
2023-03-11T04:53:19.660Z,2.67
2023-03-11T04:55:47.817Z,2.83
2023-03-11T04:58:14.457Z,3.08
2023-03-11T05:00:41.286Z,3.10
2023-03-11T05:03:08.072Z,3.28
2023-03-11T05:05:37.935Z,2.88
2023-03-11T05:08:04.697Z,2.63
2023-03-11T05:10:32.144Z,3.03
2023-03-11T05:12:59.343Z,3.13
2023-03-11T05:15:25.821Z,2.90
2023-03-11T05:17:52.241Z,2.75
2023-03-11T05:20:24.726Z,2.50
2023-03-11T05:22:51.137Z,2.60
2023-03-11T05:25:17.803Z,2.30
2023-03-11T05:27:44.311Z,2.30
2023-03-11T05:30:11.195Z,2.60
2023-03-11T05:32:37.631Z,2.35
2023-03-11T05:35:04.409Z,2.25
2023-03-11T05:37:32.195Z,2.10
2023-03-11T05:39:58.655Z,2.17
2023-03-11T05:42:25.168Z,1.98
2023-03-11T05:44:51.583Z,2.03
2023-03-11T05:47:18.463Z,2.15
2023-03-11T05:49:48.546Z,1.70
2023-03-11T05:52:15.380Z,1.70
2023-03-11T05:54:41.927Z,2.03
2023-03-11T05:57:08.408Z,4.70
2023-03-11T05:59:35.470Z,1.67
2023-03-11T06:02:06.927Z,1.88
2023-03-11T06:04:33.425Z,2.22
2023-03-11T06:07:02.968Z,3.55
2023-03-11T06:09:36.870Z,2.60
2023-03-11T06:12:12.412Z,3.10
2023-03-11T06:14:38.869Z,2.92
2023-03-11T06:17:05.379Z,2.55
2023-03-11T06:19:31.862Z,3.20
2023-03-11T06:21:59.342Z,4.40
2023-03-11T06:24:29.700Z,1.70
2023-03-11T06:27:11.217Z,6.90
2023-03-11T06:29:37.645Z,3.17
2023-03-11T06:32:04.332Z,3.13
2023-03-11T06:34:30.794Z,4.00
2023-03-11T06:36:59.360Z,7.75
2023-03-11T06:39:25.827Z,4.72
2023-03-11T06:41:52.281Z,3.40
2023-03-11T06:44:18.713Z,7.80
2023-03-11T06:46:45.339Z,2.33
2023-03-11T06:49:11.732Z,4.45
2023-03-11T06:51:38.115Z,2.35
2023-03-11T06:54:04.680Z,1.90
2023-03-11T06:56:53.816Z,1.40
2023-03-11T06:59:20.821Z,1.60
2023-03-11T07:01:47.261Z,1.50
2023-03-11T07:04:14.757Z,1.73
2023-03-11T07:06:45.258Z,1.30
2023-03-11T07:09:13.118Z,1.48
2023-03-11T07:11:39.607Z,1.40
2023-03-11T07:14:08.498Z,1.48
2023-03-11T07:16:43.416Z,1.30
2023-03-11T07:19:10.870Z,1.40
2023-03-11T07:21:38.831Z,1.33
2023-03-11T07:24:06.340Z,1.30
2023-03-11T07:26:34.543Z,1.20
2023-03-11T07:29:05.036Z,1.40
2023-03-11T07:31:37.732Z,1.00
2023-03-11T07:34:11.249Z,1.15
2023-03-11T07:36:40.567Z,1.10
2023-03-11T07:39:07.464Z,1.33
2023-03-11T07:41:41.330Z,1.10
2023-03-11T07:44:09.841Z,1.15
2023-03-11T07:46:36.355Z,1.25
2023-03-11T07:49:03.719Z,1.35
2023-03-11T07:51:34.987Z,1.42
2023-03-11T07:54:04.260Z,1.20
2023-03-11T07:56:57.527Z,1.27
2023-03-11T07:59:24.275Z,1.40
2023-03-11T08:01:50.785Z,1.63
2023-03-11T08:04:17.376Z,1.52
2023-03-11T08:06:48.203Z,1.27
2023-03-11T08:09:22.539Z,1.50
2023-03-11T08:12:23.340Z,1.42
2023-03-11T08:14:49.766Z,1.60
2023-03-11T08:17:16.234Z,1.63
2023-03-11T08:19:42.637Z,1.25
2023-03-11T08:22:12.260Z,1.42
2023-03-11T08:24:43.666Z,1.58
2023-03-11T08:27:10.159Z,1.48
2023-03-11T08:29:36.601Z,1.10
2023-03-11T08:32:12.422Z,1.50
2023-03-11T08:34:39.941Z,1.25
2023-03-11T08:37:12.535Z,1.30
2023-03-11T08:39:49.241Z,1.35
2023-03-11T08:42:17.829Z,1.42
2023-03-11T08:44:44.278Z,0.98
2023-03-11T08:47:10.745Z,1.10
2023-03-11T08:49:43.539Z,0.98
2023-03-11T08:52:13.109Z,0.95
2023-03-11T08:54:43.730Z,1.05
2023-03-11T08:57:10.199Z,1.20
2023-03-11T08:59:47.891Z,1.15
2023-03-11T09:02:19.462Z,1.30
2023-03-11T09:04:46.879Z,1.45
2023-03-11T09:07:14.382Z,1.13
2023-03-11T09:09:43.405Z,1.42
2023-03-11T09:12:19.051Z,1.08
2023-03-11T09:14:56.230Z,1.83
2023-03-11T09:17:31.947Z,1.00
2023-03-11T09:19:58.410Z,1.30
2023-03-11T09:22:24.912Z,0.88
2023-03-11T09:24:51.306Z,1.10
2023-03-11T09:27:17.775Z,1.00
2023-03-11T09:29:44.193Z,1.30
2023-03-11T09:32:15.551Z,1.00
2023-03-11T09:34:42.210Z,0.88
2023-03-11T09:37:08.897Z,1.30
2023-03-11T09:39:35.275Z,3.38
2023-03-11T09:42:18.733Z,9.90
2023-03-11T09:45:18.971Z,3.75
2023-03-11T09:48:22.869Z,1.10
2023-03-11T09:51:00.807Z,1.10
2023-03-11T12:01:01.473Z,1.30
2023-03-11T12:03:58.559Z,1.10
2023-03-11T12:09:24.033Z,1.20
2023-03-11T12:11:56.158Z,1.10
2023-03-11T12:14:48.374Z,1.05
2023-03-11T12:17:18.718Z,0.82
2023-03-11T12:20:00.134Z,1.00
2023-03-11T12:23:07.977Z,1.02
2023-03-11T12:28:22.326Z,1.20
2023-03-11T12:30:54.206Z,1.20
2023-03-11T12:33:34.143Z,1.00
2023-03-11T12:36:02.089Z,1.20
2023-03-11T12:38:33.067Z,0.93
2023-03-11T12:41:01.317Z,1.02
2023-03-11T12:43:33.839Z,0.80
2023-03-11T12:46:08.363Z,1.20
2023-03-11T12:48:51.112Z,1.10
2023-03-11T12:51:33.632Z,1.40
2023-03-11T12:54:23.188Z,1.42
2023-03-11T12:57:05.503Z,1.00
2023-03-11T12:59:53.787Z,1.20
2023-03-11T13:02:57.942Z,4.57
2023-03-11T13:06:12.802Z,1.15
2023-03-11T13:08:48.830Z,1.10
2023-03-11T13:11:33.564Z,1.23
2023-03-11T13:14:11.936Z,1.23
2023-03-11T13:16:39.728Z,1.33
2023-03-11T13:19:47.542Z,1.17
2023-03-11T13:22:42.468Z,1.20
2023-03-11T13:25:37.492Z,1.48
2023-03-11T13:28:43.681Z,1.33
2023-03-11T13:31:29.885Z,0.80
2023-03-11T13:34:16.970Z,1.30
2023-03-11T13:36:48.622Z,1.20
2023-03-11T13:39:24.224Z,0.90
2023-03-11T13:41:50.631Z,1.10
2023-03-11T13:44:38.873Z,1.30
2023-03-11T13:47:17.583Z,1.25
2023-03-11T13:49:51.724Z,1.10
2023-03-11T13:52:30.428Z,1.10
2023-03-11T13:55:06.348Z,1.40
2023-03-11T13:57:36.044Z,1.05
2023-03-11T14:00:17.835Z,1.10
2023-03-11T14:03:02.247Z,1.10
2023-03-11T14:05:44.455Z,1.35
2023-03-11T14:08:31.798Z,1.58
2023-03-11T14:11:16.606Z,0.90
2023-03-11T14:13:49.943Z,1.80
2023-03-11T14:16:44.031Z,1.35
2023-03-11T14:19:20.103Z,1.20
2023-03-11T14:21:49.919Z,1.23
2023-03-11T14:24:18.666Z,1.05
2023-03-11T14:26:45.397Z,0.85
2023-03-11T14:29:17.468Z,1.10
2023-03-11T14:31:44.952Z,1.08
2023-03-11T14:34:11.300Z,1.15
2023-03-11T14:36:44.855Z,1.00
2023-03-11T14:39:33.626Z,1.40
2023-03-11T14:42:22.714Z,1.20
2023-03-11T14:45:07.195Z,1.00
2023-03-11T14:47:40.102Z,1.33
2023-03-11T14:50:14.173Z,1.40
2023-03-11T14:52:48.624Z,1.48
2023-03-11T14:55:29.122Z,1.40
2023-03-11T14:58:02.771Z,1.50
2023-03-11T15:00:36.312Z,1.38
2023-03-11T15:03:39.067Z,1.25
2023-03-11T15:06:12.003Z,1.95
2023-03-11T15:08:47.824Z,1.85
2023-03-11T15:11:20.450Z,2.05
2023-03-11T15:13:53.268Z,1.70
2023-03-11T15:16:39.068Z,1.40
2023-03-11T15:19:28.750Z,1.70
2023-03-11T15:22:29.987Z,1.90
2023-03-11T15:25:01.364Z,1.90
2023-03-11T15:27:35.745Z,2.72
2023-03-11T15:30:26.462Z,1.95
2023-03-11T15:32:53.484Z,1.95
2023-03-11T15:35:28.666Z,2.03
2023-03-11T15:38:23.490Z,1.67
2023-03-11T15:41:03.706Z,1.30
2023-03-11T15:44:04.129Z,3.08
2023-03-11T15:46:30.619Z,9.95
2023-03-11T15:49:04.717Z,2.40
2023-03-11T15:51:41.182Z,1.75
2023-03-11T15:54:11.011Z,2.30
2023-03-11T15:56:38.450Z,4.03
2023-03-11T15:59:04.855Z,1.67
2023-03-11T16:01:31.312Z,1.85
2023-03-11T16:03:57.774Z,3.40
2023-03-11T16:06:24.210Z,3.20
2023-03-11T16:08:50.786Z,2.35
2023-03-11T16:11:18.718Z,1.90
2023-03-11T16:13:45.309Z,2.10
2023-03-11T16:16:17.184Z,2.05
2023-03-11T16:18:53.921Z,5.43
2023-03-11T16:21:31.686Z,2.65
2023-03-11T16:23:59.131Z,2.05
2023-03-11T16:26:25.633Z,2.30
2023-03-11T16:29:06.213Z,3.28
2023-03-11T16:31:39.296Z,2.60
2023-03-11T16:34:15.016Z,5.88
2023-03-11T16:36:48.556Z,4.47
2023-03-11T16:39:14.961Z,9.88
2023-03-11T16:41:44.307Z,5.50
2023-03-11T16:44:11.280Z,3.67
2023-03-11T16:46:38.797Z,9.20
2023-03-11T16:49:13.334Z,3.03
2023-03-11T16:51:39.711Z,8.30
2023-03-11T16:54:06.371Z,8.38
2023-03-11T16:56:32.943Z,2.85
2023-03-11T16:59:04.298Z,3.60
2023-03-11T17:01:30.879Z,8.77
2023-03-11T17:03:57.339Z,7.82
2023-03-11T17:06:24.037Z,3.40
2023-03-11T17:08:50.562Z,2.05
2023-03-11T17:11:19.406Z,5.53
2023-03-11T17:13:46.326Z,3.47
2023-03-11T17:16:14.074Z,3.38
2023-03-11T17:18:40.636Z,2.08
2023-03-11T17:21:09.350Z,2.53
2023-03-11T17:23:36.386Z,2.13
2023-03-11T17:26:17.236Z,2.58
2023-03-11T17:28:43.776Z,2.72
2023-03-11T17:31:28.666Z,2.10
2023-03-11T17:33:55.167Z,6.55
2023-03-11T17:36:21.650Z,6.05
2023-03-11T17:38:51.087Z,3.10
2023-03-11T17:41:18.038Z,2.45
2023-03-11T17:43:51.347Z,2.10
2023-03-11T17:46:20.809Z,2.60
2023-03-11T17:48:48.524Z,4.30
2023-03-11T17:51:17.350Z,2.75
2023-03-11T17:53:50.662Z,2.10
2023-03-11T17:56:18.489Z,2.30
2023-03-11T17:58:45.293Z,3.20
2023-03-11T18:01:24.213Z,2.03
2023-03-11T18:03:54.415Z,2.75
2023-03-11T18:06:22.658Z,2.88
2023-03-11T18:08:50.058Z,4.03
2023-03-11T18:11:20.033Z,3.10
2023-03-11T18:13:52.027Z,4.45
2023-03-11T18:16:33.716Z,2.47
2023-03-11T18:19:04.625Z,2.92
2023-03-11T18:21:40.267Z,2.40
2023-03-11T18:24:07.024Z,2.40
2023-03-11T18:26:33.501Z,2.38
2023-03-11T18:29:00.471Z,2.25
2023-03-11T18:31:30.232Z,2.47
2023-03-11T18:34:13.577Z,2.25
2023-03-11T18:36:44.723Z,2.30
2023-03-11T20:51:29.319Z,3.30
2023-03-11T20:53:57.171Z,3.38
2023-03-11T20:56:26.008Z,3.22
2023-03-11T20:58:53.219Z,3.22
2023-03-11T21:01:25.349Z,3.97
2023-03-11T21:03:57.268Z,3.65
2023-03-11T21:06:27.200Z,4.20
2023-03-11T21:08:55.531Z,4.63
2023-03-11T21:11:23.087Z,4.95
2023-03-11T21:13:52.322Z,4.18
2023-03-11T21:16:21.655Z,4.63
2023-03-11T21:19:10.248Z,4.72
2023-03-11T21:21:37.402Z,5.85
2023-03-11T21:24:07.141Z,5.82
2023-03-11T21:26:35.224Z,6.97
2023-03-11T21:29:04.865Z,7.90
2023-03-11T21:31:31.689Z,6.00
2023-03-11T21:33:59.303Z,5.70
2023-03-11T21:36:25.922Z,6.57
2023-03-11T21:38:54.723Z,7.07
2023-03-11T21:41:24.995Z,6.47
2023-03-11T21:43:53.278Z,5.63
2023-03-11T21:46:22.981Z,6.10
2023-03-11T21:48:50.278Z,6.20
2023-03-11T21:51:18.839Z,5.20
2023-03-11T21:53:45.956Z,5.15
2023-03-11T21:56:13.537Z,6.18
2023-03-11T21:58:41.816Z,5.35
2023-03-11T22:01:09.546Z,5.45
2023-03-11T22:03:36.935Z,5.20
2023-03-11T22:06:09.663Z,5.03
2023-03-11T22:08:52.836Z,5.20
2023-03-11T22:11:20.528Z,5.35
2023-03-11T22:13:49.185Z,5.40
2023-03-11T22:16:16.958Z,5.55
2023-03-11T22:18:43.832Z,6.00
2023-03-11T22:21:11.077Z,5.57
2023-03-11T22:23:37.682Z,5.70
2023-03-11T22:26:04.332Z,5.45
2023-03-11T22:28:30.780Z,5.22
2023-03-11T22:30:57.259Z,5.50
2023-03-11T22:33:23.724Z,5.18
2023-03-11T22:35:55.555Z,5.10
2023-03-11T22:38:22.746Z,4.93
2023-03-11T22:40:49.843Z,5.03
2023-03-11T22:43:16.545Z,4.57
2023-03-11T22:45:44.885Z,4.70
2023-03-11T22:48:11.621Z,5.03
2023-03-11T22:50:44.379Z,4.80
2023-03-11T22:53:12.499Z,4.65
2023-03-11T22:55:44.239Z,5.07
2023-03-11T22:58:11.674Z,4.80
2023-03-11T23:00:38.797Z,5.00
2023-03-11T23:03:05.684Z,5.88
2023-03-11T23:05:32.288Z,4.85
2023-03-11T23:07:58.720Z,5.50
2023-03-11T23:10:25.114Z,5.00
2023-03-11T23:12:51.518Z,5.03
2023-03-11T23:15:19.202Z,4.60
2023-03-11T23:17:45.701Z,5.20
2023-03-11T23:20:14.487Z,4.32
2023-03-11T23:22:42.026Z,4.15
2023-03-11T23:25:12.245Z,4.18
2023-03-11T23:27:38.806Z,4.18
2023-03-11T23:30:16.650Z,4.35
2023-03-11T23:32:44.328Z,4.10
2023-03-11T23:35:11.941Z,4.55
2023-03-11T23:37:38.487Z,4.28
2023-03-11T23:40:05.926Z,3.80
2023-03-11T23:42:34.677Z,4.18
2023-03-11T23:45:01.969Z,4.28
2023-03-11T23:47:28.767Z,4.30
2023-03-11T23:49:55.211Z,4.63
2023-03-11T23:52:21.812Z,4.10
2023-03-11T23:54:48.227Z,4.63
2023-03-11T23:57:14.646Z,5.22
2023-03-11T23:59:41.016Z,4.97
